Slatersville, RI (02876)

5:45 PM EDT on March 26, 2017 (GMT -0400)
Slatersville | | Change Station
Active Advisory: Special Statement

Elev 335 ft 41.99 °N, 71.56 °W | Updated 39 seconds ago

Overcast
Overcast
39.9 °F
Feels Like 40 °F
N
1.7
Wind Variable Wind from NNE

Today
High -- | Low -- °F
--% Chance of Precip.
Yesterday
High -- | Low -- °F
Precip. -- in
Pressure 30.52 in
Visibility 10.0 miles
Clouds Mostly Cloudy 3000 ft
Overcast 4400 ft
Windchill 40 °F
Dew Point 30 °F
Humidity 67%
Rainfall 0.00 in
Snow Depth Not available.
6:38 AM 7:05 PM
Waning Crescent, 2% visible
METAR KSFZ 262056Z AUTO 16006KT 10SM BKN030 OVC044 04/M02 A3045 RMK AO2 SLP334 60000 T00441022 58013
Pressure 30.52 in
Visibility 10.0 miles
Clouds Mostly Cloudy 3000 ft
Overcast 4400 ft
Windchill 40 °F
Dew Point 30 °F
Humidity 67%
Rainfall 0.00 in
Snow Depth Not available.
6:38 AM 7:05 PM
Waning Crescent, 2% visible
METAR KSFZ 262056Z AUTO 16006KT 10SM BKN030 OVC044 04/M02 A3045 RMK AO2 SLP334 60000 T00441022 58013

Get Your Daily Forecast Email!

Thanks for signing up!

Be on the lookout for a verification email in your inbox.

You'll start receiving severe weather alerts in your inbox..

×

10-Day Weather Forecast

Almanac

Astronomy

Mar. 26, 2017 Rise Set
Actual Time
Civil Twilight
Nautical Twilight
Astronomical Twilight
Moon
Length of Visible Light
Length of Day
Tomorrow will be .
, % of the Moon is Illuminated

Today's Extremes

State Highs State Lows

Community

WunderPhotos

Upload Photos

1,962,540 photos uploaded!

WunderBlog® & News

Nearby

Air Quality

  Air Quality AQ Index Pollutant
Not available.

Snow Depth

Station Depth Elevation

Earthquake Activity

City Distance Mag. Time & Date
Minimum magnitude displayed is 2.5.

Earthquake Activity

City Distance Mag. Time & Date
Minimum magnitude displayed is 2.5.

Coastal Water Temperatures

Place Temperature

Stations

Nearby Weather Stations

Station Location Temp. Windchill Dew Point Humidity Wind Precip. Elev Updated Type
                   

Watches & Warnings

Special Statement
Issued: 3:44 PM EDT Mar. 26, 2017 – National Weather Service

... Freezing rain forecast during the overnight hours...

Temperatures across northern Connecticut, the Connecticut River
valley of Massachusetts, and eastern and northeastern interior
Massachusetts will fall towards and hover around freezing overnight.

While freezing rain is forecast, with temperatures hovering around
freezing, expect any icing to be spotty. Subsequently confidence is
low with respect to ice accumulation on untreated surfaces. If any,
feel it will be isolated and more confined to the higher elevations
such as the Tolland hills of northern Connecticut.

Temperatures should warm during the early morning hours Monday thus
diminishing the freezing rain threat.


Sipprell